createdAt,value
2019-02-10T00:01:30.918Z,97227.00
2019-02-10T00:05:45.699Z,97230.00
2019-02-10T00:10:02.472Z,97228.00
2019-02-10T00:14:16.913Z,97227.00
2019-02-10T00:18:33.570Z,97223.00
2019-02-10T00:22:47.769Z,97220.00
2019-02-10T00:27:02.383Z,97192.00
2019-02-10T00:31:16.729Z,97170.00
2019-02-10T00:35:31.317Z,97172.00
2019-02-10T00:39:45.862Z,97159.00
2019-02-10T00:44:08.579Z,97135.00
2019-02-10T00:48:29.442Z,97123.00
2019-02-10T00:52:50.296Z,97131.00
2019-02-10T00:57:04.393Z,97139.00
2019-02-10T01:01:05.479Z,97135.00
2019-02-10T01:05:06.873Z,97125.00
2019-02-10T01:09:29.719Z,97112.00
2019-02-10T01:13:50.515Z,97101.00
2019-02-10T01:18:11.266Z,97102.00
2019-02-10T01:22:32.096Z,97102.00
2019-02-10T01:26:52.930Z,97087.00
2019-02-10T01:31:13.777Z,97090.00
2019-02-10T01:35:34.616Z,97076.00
2019-02-10T01:40:17.113Z,97075.00
2019-02-10T01:44:37.964Z,97063.00
2019-02-10T01:48:58.927Z,97051.00
2019-02-10T01:53:19.766Z,97041.00
2019-02-10T01:57:20.754Z,97023.00
2019-02-10T02:01:41.588Z,97022.00
2019-02-10T02:06:02.426Z,97001.00
2019-02-10T02:10:23.167Z,96986.00
2019-02-10T02:14:43.907Z,96973.00
2019-02-10T02:23:33.631Z,96957.00
2019-02-10T02:27:54.456Z,96953.00
2019-02-10T02:32:15.208Z,96960.00
2019-02-10T02:41:04.896Z,96926.00
2019-02-10T02:45:47.412Z,96910.00
2019-02-10T02:50:09.138Z,96902.00
2019-02-10T02:54:23.102Z,96888.00
2019-02-10T02:58:37.551Z,96884.00
2019-02-10T03:02:52.197Z,96868.00
2019-02-10T03:07:06.616Z,96849.00
2019-02-10T03:11:21.311Z,96837.00
2019-02-10T03:15:36.125Z,96803.00
2019-02-10T03:19:50.566Z,96791.00
2019-02-10T03:24:05.230Z,96780.00
2019-02-10T03:28:06.288Z,96792.00
2019-02-10T03:32:27.043Z,96795.00
2019-02-10T03:36:47.843Z,96795.00
2019-02-10T03:41:08.652Z,96773.00
2019-02-10T03:45:29.502Z,96769.00
2019-02-10T03:49:50.357Z,96732.00
2019-02-10T03:54:11.196Z,96713.00
2019-02-10T03:58:25.821Z,96698.00
2019-02-10T04:02:26.708Z,96685.00
2019-02-10T04:06:47.562Z,96676.00
2019-02-10T04:11:08.523Z,96675.00
2019-02-10T04:15:29.481Z,96660.00
2019-02-10T04:19:30.461Z,96658.00
2019-02-10T04:23:51.163Z,96642.00
2019-02-10T04:28:11.887Z,96627.00
2019-02-10T04:32:32.640Z,96626.00
2019-02-10T04:36:53.482Z,96611.00
2019-02-10T04:41:14.223Z,96601.00
2019-02-10T04:45:34.946Z,96590.00
2019-02-10T04:49:35.901Z,96581.00
2019-02-10T04:53:56.736Z,96581.00
2019-02-10T04:58:11.231Z,96583.00
2019-02-10T05:02:25.871Z,96569.00
2019-02-10T05:06:39.758Z,96560.00
2019-02-10T05:10:53.517Z,96538.00
2019-02-10T05:15:08.063Z,96541.00
2019-02-10T05:19:22.501Z,96517.00
2019-02-10T05:23:37.223Z,96498.00
2019-02-10T05:27:51.955Z,96485.00
2019-02-10T05:32:06.538Z,96478.00
2019-02-10T05:36:07.543Z,96464.00
2019-02-10T05:40:08.522Z,96436.00
2019-02-10T05:44:29.324Z,96428.00
2019-02-10T05:48:50.169Z,96427.00
2019-02-10T05:53:10.928Z,96417.00
2019-02-10T05:57:25.070Z,96395.00
2019-02-10T06:02:25.574Z,96384.00
2019-02-10T06:06:46.416Z,96363.00
2019-02-10T06:10:47.296Z,96364.00
2019-02-10T06:15:08.300Z,96350.00
2019-02-10T06:19:09.188Z,96342.00
2019-02-10T06:23:10.041Z,96345.00
2019-02-10T06:27:10.930Z,96321.00
2019-02-10T06:31:31.705Z,96316.00
2019-02-10T06:35:52.462Z,96291.00
2019-02-10T06:40:13.187Z,96297.00
2019-02-10T06:44:33.927Z,96293.00
2019-02-10T06:48:54.761Z,96260.00
2019-02-10T06:53:15.587Z,96260.00
2019-02-10T06:57:29.501Z,96254.00
2019-02-10T07:01:46.156Z,96240.00
2019-02-10T07:06:00.681Z,96219.00
2019-02-10T07:10:15.389Z,96215.00
2019-02-10T07:14:29.877Z,96185.00
2019-02-10T07:18:44.547Z,96178.00
2019-02-10T07:22:59.265Z,96176.00
2019-02-10T07:27:14.356Z,96172.00
2019-02-10T07:31:28.355Z,96153.00
2019-02-10T07:35:45.507Z,96177.00
2019-02-10T07:39:59.522Z,96149.00
2019-02-10T07:44:13.859Z,96161.00
2019-02-10T07:48:36.562Z,96145.00
2019-02-10T07:53:19.110Z,96128.00
2019-02-10T07:57:33.584Z,96117.00
2019-02-10T08:01:48.212Z,96113.00
2019-02-10T08:06:02.756Z,96105.00
2019-02-10T08:10:17.274Z,96074.00
2019-02-10T08:14:31.630Z,96055.00
2019-02-10T08:18:46.310Z,96046.00
2019-02-10T08:23:00.776Z,96046.00
2019-02-10T08:27:15.548Z,96041.00
2019-02-10T08:31:30.146Z,96027.00
2019-02-10T08:35:44.614Z,96016.00
2019-02-10T08:39:59.349Z,96032.00
2019-02-10T08:44:14.442Z,96010.00
2019-02-10T08:48:28.959Z,96016.00
2019-02-10T08:52:51.542Z,96004.00
2019-02-10T08:56:59.883Z,95991.00
2019-02-10T09:01:14.406Z,95974.00
2019-02-10T09:05:29.274Z,95970.00
2019-02-10T09:09:43.063Z,95954.00
2019-02-10T09:18:11.046Z,95963.00
2019-02-10T09:22:31.805Z,95951.00
2019-02-10T09:26:52.579Z,95945.00
2019-02-10T09:31:13.406Z,95949.00
2019-02-10T09:35:34.238Z,95938.00
2019-02-10T09:39:54.983Z,95930.00
2019-02-10T09:44:15.730Z,95936.00
2019-02-10T09:48:36.573Z,95919.00
2019-02-10T09:52:57.351Z,95916.00
2019-02-10T09:57:11.995Z,95899.00
2019-02-10T10:01:14.726Z,95901.00
2019-02-10T10:05:35.986Z,95900.00
2019-02-10T10:09:56.908Z,95885.00
2019-02-10T10:14:17.679Z,95875.00
2019-02-10T10:18:38.545Z,95854.00
2019-02-10T10:22:59.286Z,95853.00
2019-02-10T10:27:20.193Z,95854.00
2019-02-10T10:31:41.079Z,95846.00
2019-02-10T10:36:02.023Z,95846.00
2019-02-10T10:40:23.202Z,95835.00
2019-02-10T10:44:43.976Z,95821.00
2019-02-10T10:49:04.834Z,95816.00
2019-02-10T10:53:25.584Z,95805.00
2019-02-10T10:57:40.302Z,95794.00
2019-02-10T11:01:41.380Z,95783.00
2019-02-10T11:06:02.453Z,95769.00
2019-02-10T11:10:23.405Z,95770.00
2019-02-10T11:14:44.185Z,95763.00
2019-02-10T11:18:45.065Z,95741.00
2019-02-10T11:23:05.829Z,95744.00
2019-02-10T11:27:26.557Z,95719.00
2019-02-10T11:31:27.560Z,95716.00
2019-02-10T11:35:48.469Z,95709.00
2019-02-10T11:40:12.906Z,95682.00
2019-02-10T11:44:33.768Z,95677.00
2019-02-10T11:48:54.699Z,95671.00
2019-02-10T11:53:15.513Z,95674.00
2019-02-10T11:57:16.427Z,95667.00
2019-02-10T12:01:37.260Z,95651.00
2019-02-10T12:05:38.193Z,95654.00
2019-02-10T12:09:39.328Z,95623.00
2019-02-10T12:14:00.195Z,95625.00
2019-02-10T12:18:20.964Z,95611.00
2019-02-10T12:22:49.691Z,95590.00
2019-02-10T12:27:04.468Z,95602.00
2019-02-10T12:31:25.890Z,95590.00
2019-02-10T12:35:46.728Z,95595.00
2019-02-10T12:39:47.699Z,95604.00
2019-02-10T12:43:48.674Z,95588.00
2019-02-10T12:52:38.909Z,95571.00
2019-02-10T12:56:54.811Z,95572.00
2019-02-10T13:01:08.664Z,95568.00
2019-02-10T13:05:26.259Z,95574.00
2019-02-10T13:09:41.179Z,95584.00
2019-02-10T13:13:55.738Z,95555.00
2019-02-10T13:18:12.562Z,95552.00
2019-02-10T13:22:26.914Z,95568.00
2019-02-10T13:31:16.713Z,95551.00
2019-02-10T13:35:39.783Z,95537.00
2019-02-10T13:40:00.511Z,95546.00
2019-02-10T13:44:21.269Z,95554.00
2019-02-10T13:48:42.103Z,95533.00
2019-02-10T13:53:02.975Z,95549.00
2019-02-10T13:57:18.922Z,95560.00
2019-02-10T14:01:33.177Z,95560.00
2019-02-10T14:05:47.606Z,95578.00
2019-02-10T14:10:02.372Z,95568.00
2019-02-10T14:14:16.845Z,95562.00
2019-02-10T14:18:31.632Z,95582.00
2019-02-10T14:22:45.552Z,95604.00
2019-02-10T14:27:05.901Z,95590.00
2019-02-10T14:31:20.081Z,95596.00
2019-02-10T14:35:34.562Z,95601.00
2019-02-10T14:39:50.040Z,95608.00
2019-02-10T14:44:04.828Z,95614.00
2019-02-10T14:48:06.009Z,95625.00
2019-02-10T14:52:26.877Z,95617.00
2019-02-10T14:56:44.007Z,95603.00
2019-02-10T15:00:58.162Z,95616.00
2019-02-10T15:05:12.802Z,95617.00
2019-02-10T15:09:27.386Z,95613.00
2019-02-10T15:13:42.208Z,95610.00
2019-02-10T15:17:56.213Z,95617.00
2019-02-10T15:22:10.466Z,95619.00
2019-02-10T15:26:25.007Z,95622.00
2019-02-10T15:30:38.825Z,95611.00
2019-02-10T15:34:53.566Z,95628.00
2019-02-10T15:39:10.284Z,95639.00
2019-02-10T15:43:25.116Z,95640.00
2019-02-10T15:47:39.781Z,95627.00
2019-02-10T15:51:54.435Z,95654.00
2019-02-10T15:56:08.940Z,95652.00
2019-02-10T16:00:23.588Z,95645.00
2019-02-10T16:04:38.071Z,95640.00
2019-02-10T16:08:52.896Z,95652.00
2019-02-10T16:13:07.855Z,95648.00
2019-02-10T16:17:08.750Z,95653.00
2019-02-10T16:21:29.506Z,95646.00
2019-02-10T16:25:50.235Z,95665.00
2019-02-10T16:30:12.420Z,95684.00
